»·PEaware :: N210LD KBUR-KHND

N210LD :: KBUR-KHND

FLIGHT INFORMATION

Flight Status: Arrived
Operator: Privately registered:
United States
More flights under this callsign
Pilot: Slade E. (12022)
Aircraft: CESSNA T210 TURBO CENTURION
(T210)
More flights by this aircraft type
Origin: KBUR Bob Hope-Burbank
United States
Destination: KHND Henderson
United States
More flights between these airports :: More routes between these airports
Route: VNY3 DAG V587 BLD
File this flight plan on PilotEdge
Remarks:
Altitude:
(Current/Filed)
15,000ft
Speed:
(Current/Filed)
160kts
Departed: 09-Feb-19 02:23 PM
Arrived: 09-Feb-19 03:39 PM
Distance/Time
Traveled:
191nm/1:16
Distance/Time
To Go:
Arrived

Flight Plot

Page will automatically refresh every two minutes.

Flight plan parsing failed; only flown route is shown


Map Options




Map Legend


Flown Route
Filed Route
Departure Airport
Arrival Airport
Navaid (VOR, NDB)
Fix

Horizontal Profiles

Position Reports

Time Latitude Longitude Heading Altitude Ground
Speed
09-Feb-19 13:57 34.200203 -118.358745 263 734ft 0kts
09-Feb-19 13:58 34.200203 -118.358745 263 734ft 0kts
09-Feb-19 13:59 34.200203 -118.358745 263 734ft 0kts
09-Feb-19 13:59 34.200203 -118.358745 263 734ft 0kts
09-Feb-19 14:00 34.200203 -118.358745 263 734ft 0kts
09-Feb-19 14:02 34.200203 -118.358745 263 734ft 0kts
09-Feb-19 14:03 34.200203 -118.358745 263 734ft 0kts
09-Feb-19 14:03 34.200203 -118.358745 263 734ft 0kts
09-Feb-19 14:04 34.200203 -118.358745 263 734ft 0kts
09-Feb-19 14:05 34.200203 -118.358745 263 734ft 0kts
09-Feb-19 14:06 34.200203 -118.358745 263 734ft 0kts
09-Feb-19 14:07 34.200203 -118.358745 263 734ft 0kts
09-Feb-19 14:08 34.200203 -118.358745 263 734ft 0kts
09-Feb-19 14:09 34.200203 -118.358745 263 734ft 0kts
09-Feb-19 14:10 34.200203 -118.358745 263 734ft 0kts
09-Feb-19 14:11 34.200203 -118.358745 263 734ft 0kts
09-Feb-19 14:12 34.200203 -118.358745 263 734ft 0kts
09-Feb-19 14:13 34.200203 -118.358745 263 734ft 0kts
09-Feb-19 14:14 34.200258 -118.358941 6 734ft 3kts
09-Feb-19 14:15 34.201027 -118.358515 349 734ft 4kts
09-Feb-19 14:16 34.204121 -118.359366 348 734ft 14kts
09-Feb-19 14:17 34.206906 -118.360127 347 734ft 6kts
09-Feb-19 14:18 34.209759 -118.360921 346 734ft 17kts
09-Feb-19 14:19 34.211659 -118.361442 348 734ft 0kts
09-Feb-19 14:20 34.211659 -118.361442 348 734ft 0kts
09-Feb-19 14:21 34.211725 -118.361459 348 734ft 2kts
09-Feb-19 14:22 34.210651 -118.359987 167 734ft 51kts
09-Feb-19 14:23 34.185769 -118.356755 205 1692ft 104kts
09-Feb-19 14:24 34.164182 -118.379896 223 2838ft 105kts
09-Feb-19 14:25 34.143827 -118.401611 224 3893ft 105kts
09-Feb-19 14:26 34.145149 -118.427006 343 4996ft 106kts
09-Feb-19 14:27 34.174513 -118.429111 346 6089ft 106kts
09-Feb-19 14:28 34.203650 -118.434946 340 7106ft 107kts
09-Feb-19 14:29 34.233935 -118.438752 347 8080ft 112kts
09-Feb-19 14:30 34.265672 -118.440423 345 8998ft 115kts
09-Feb-19 14:31 34.297113 -118.445359 339 9933ft 112kts
09-Feb-19 14:32 34.327818 -118.451293 335 10844ft 111kts
09-Feb-19 14:33 34.358026 -118.458845 341 11726ft 119kts
09-Feb-19 14:34 34.391110 -118.443015 34 12516ft 153kts
09-Feb-19 14:35 34.419787 -118.401753 42 13304ft 165kts
09-Feb-19 14:36 34.448415 -118.356591 43 14091ft 172kts
09-Feb-19 14:37 34.478000 -118.309583 42 14882ft 176kts
09-Feb-19 14:38 34.511193 -118.258695 43 15049ft 208kts
09-Feb-19 14:39 34.546005 -118.203122 46 15043ft 205kts
09-Feb-19 14:40 34.579616 -118.147745 45 15044ft 202kts
09-Feb-19 14:41 34.613377 -118.092984 45 15045ft 203kts
09-Feb-19 14:42 34.634658 -118.027761 78 15046ft 216kts
09-Feb-19 14:43 34.643365 -117.955019 82 15046ft 217kts
09-Feb-19 14:44 34.651456 -117.880242 82 15050ft 232kts
09-Feb-19 14:45 34.660050 -117.800878 82 15055ft 235kts
09-Feb-19 14:46 34.673775 -117.726147 71 15055ft 220kts
09-Feb-19 14:47 34.691670 -117.656046 70 15057ft 216kts
09-Feb-19 14:48 34.709566 -117.586215 70 15059ft 215kts
09-Feb-19 14:49 34.727479 -117.516054 70 15059ft 216kts
09-Feb-19 14:50 34.745410 -117.445609 70 15061ft 217kts
09-Feb-19 14:51 34.763259 -117.375314 70 15061ft 216kts
09-Feb-19 14:52 34.781067 -117.305048 71 15052ft 214kts
09-Feb-19 14:53 34.798650 -117.235474 71 15052ft 213kts
09-Feb-19 14:54 34.816337 -117.165776 72 15054ft 214kts
09-Feb-19 14:55 34.833928 -117.095621 72 15049ft 216kts
09-Feb-19 14:56 34.851511 -117.025481 72 15028ft 217kts
09-Feb-19 14:57 34.869121 -116.955027 73 15004ft 217kts
09-Feb-19 14:58 34.886718 -116.884433 73 15003ft 216kts
09-Feb-19 14:59 34.904195 -116.814033 73 15012ft 216kts
09-Feb-19 15:00 34.921697 -116.743803 73 15013ft 216kts
09-Feb-19 15:01 34.939089 -116.673529 74 15014ft 217kts
09-Feb-19 15:02 34.956461 -116.603043 74 15014ft 217kts
09-Feb-19 15:03 34.981394 -116.536092 60 15015ft 218kts
09-Feb-19 15:04 35.010276 -116.470974 60 15016ft 218kts
09-Feb-19 15:05 35.039167 -116.405627 60 15017ft 220kts
09-Feb-19 15:06 35.068344 -116.339605 61 15010ft 221kts
09-Feb-19 15:07 35.097518 -116.273587 61 15009ft 220kts
09-Feb-19 15:08 35.126569 -116.207755 61 15005ft 219kts
09-Feb-19 15:09 35.155407 -116.142258 61 15006ft 218kts
09-Feb-19 15:10 35.184235 -116.076811 61 15012ft 218kts
09-Feb-19 15:11 35.212874 -116.011794 61 15017ft 217kts
09-Feb-19 15:12 35.241537 -115.946478 63 15023ft 218kts
09-Feb-19 15:13 35.270033 -115.880892 63 15026ft 219kts
09-Feb-19 15:14 35.299678 -115.812727 63 14629ft 233kts
09-Feb-19 15:15 35.338996 -115.749195 45 14138ft 234kts
09-Feb-19 15:16 35.382701 -115.690875 45 13645ft 230kts
09-Feb-19 15:17 35.425630 -115.633607 44 13154ft 225kts
09-Feb-19 15:18 35.468006 -115.577051 44 12666ft 221kts
09-Feb-19 15:19 35.509483 -115.521531 44 12182ft 217kts
09-Feb-19 15:20 35.550087 -115.467099 44 11701ft 213kts
09-Feb-19 15:21 35.589214 -115.414559 45 11123ft 212kts
09-Feb-19 15:22 35.628180 -115.362157 45 10364ft 210kts
09-Feb-19 15:23 35.665996 -115.311177 46 9984ft 188kts
09-Feb-19 15:24 35.699990 -115.265368 46 9987ft 175kts
09-Feb-19 15:25 35.732779 -115.221105 46 9809ft 180kts
09-Feb-19 15:26 35.767308 -115.174842 37 9320ft 181kts
09-Feb-19 15:27 35.811037 -115.147218 21 8825ft 174kts
09-Feb-19 15:28 35.855120 -115.121806 21 8325ft 173kts
09-Feb-19 15:29 35.901656 -115.112464 2 7668ft 167kts
09-Feb-19 15:30 35.943413 -115.111984 320 6636ft 135kts
09-Feb-19 15:31 35.939687 -115.142078 196 5628ft 106kts
09-Feb-19 15:32 35.911841 -115.148886 190 4961ft 92kts
09-Feb-19 15:33 35.886980 -115.150496 147 4983ft 104kts
09-Feb-19 15:34 35.898052 -115.119486 5 4981ft 136kts
09-Feb-19 15:35 35.934370 -115.118400 347 4434ft 130kts
09-Feb-19 15:36 35.966937 -115.120864 354 3513ft 109kts
09-Feb-19 15:37 35.989049 -115.129345 262 2867ft 73kts
09-Feb-19 15:38 35.976415 -115.135385 181 2447ft 32kts
09-Feb-19 15:39 35.974419 -115.136387 271 2447ft 4kts
09-Feb-19 15:40 35.974924 -115.138409 86 2447ft 10kts
09-Feb-19 15:41 35.975098 -115.138281 1 2447ft 0kts
09-Feb-19 15:42 35.975098 -115.138281 1 2447ft 0kts
09-Feb-19 15:43 35.975098 -115.138281 1 2447ft 0kts
09-Feb-19 15:44 35.975098 -115.138281 1 2447ft 0kts
09-Feb-19 15:45 35.975098 -115.138281 1 2447ft 0kts
09-Feb-19 15:46 35.975098 -115.138281 1 2447ft 0kts
09-Feb-19 15:47 35.975098 -115.138281 1 2447ft 0kts
09-Feb-19 15:48 35.975098 -115.138281 1 2447ft 0kts
09-Feb-19 15:49 35.975098 -115.138281 1 2447ft 0kts
09-Feb-19 15:50 35.975098 -115.138281 1 2447ft 0kts
09-Feb-19 15:51 35.975098 -115.138281 1 2447ft 0kts
09-Feb-19 15:53 35.975098 -115.138281 1 2447ft 0kts

Navigation Log

Ident Type
Flight plan parsing failed, navigation log unavailable